sensor_id;sensor_type;location;lat;lon;timestamp;temperature;humidity
38265;DHT22;24062;47.480;8.768;2023-08-12T00:00:01;28.30;56.70
38265;DHT22;24062;47.480;8.768;2023-08-12T00:02:36;28.30;57.40
38265;DHT22;24062;47.480;8.768;2023-08-12T00:05:04;28.20;56.70
38265;DHT22;24062;47.480;8.768;2023-08-12T00:07:31;28.20;56.70
38265;DHT22;24062;47.480;8.768;2023-08-12T00:09:59;28.20;56.70
38265;DHT22;24062;47.480;8.768;2023-08-12T00:12:26;28.20;56.70
38265;DHT22;24062;47.480;8.768;2023-08-12T00:14:54;28.20;56.90
38265;DHT22;24062;47.480;8.768;2023-08-12T00:17:22;28.20;56.80
38265;DHT22;24062;47.480;8.768;2023-08-12T00:19:49;28.20;56.80
38265;DHT22;24062;47.480;8.768;2023-08-12T00:22:16;28.10;56.80
38265;DHT22;24062;47.480;8.768;2023-08-12T00:24:43;28.10;56.80
38265;DHT22;24062;47.480;8.768;2023-08-12T00:27:10;28.10;56.80
38265;DHT22;24062;47.480;8.768;2023-08-12T00:29:37;28.20;56.90
38265;DHT22;24062;47.480;8.768;2023-08-12T00:32:08;28.10;56.80
38265;DHT22;24062;47.480;8.768;2023-08-12T00:34:36;28.10;56.80
38265;DHT22;24062;47.480;8.768;2023-08-12T00:37:03;28.10;56.90
38265;DHT22;24062;47.480;8.768;2023-08-12T00:39:30;28.10;56.80
38265;DHT22;24062;47.480;8.768;2023-08-12T00:41:57;28.10;56.90
38265;DHT22;24062;47.480;8.768;2023-08-12T00:44:24;28.00;56.80
38265;DHT22;24062;47.480;8.768;2023-08-12T00:46:50;28.00;56.90
38265;DHT22;24062;47.480;8.768;2023-08-12T00:49:19;28.00;56.80
38265;DHT22;24062;47.480;8.768;2023-08-12T00:51:46;28.00;56.80
38265;DHT22;24062;47.480;8.768;2023-08-12T00:54:16;28.00;56.90
38265;DHT22;24062;47.480;8.768;2023-08-12T00:56:43;28.00;56.90
38265;DHT22;24062;47.480;8.768;2023-08-12T00:59:11;28.00;56.90
38265;DHT22;24062;47.480;8.768;2023-08-12T01:01:40;28.00;56.90
38265;DHT22;24062;47.480;8.768;2023-08-12T01:04:07;28.00;56.90
38265;DHT22;24062;47.480;8.768;2023-08-12T01:06:36;27.90;56.90
38265;DHT22;24062;47.480;8.768;2023-08-12T01:09:04;27.90;56.90
38265;DHT22;24062;47.480;8.768;2023-08-12T01:11:36;27.90;56.90
38265;DHT22;24062;47.480;8.768;2023-08-12T01:14:20;27.90;57.00
38265;DHT22;24062;47.480;8.768;2023-08-12T01:16:51;27.90;57.00
38265;DHT22;24062;47.480;8.768;2023-08-12T01:19:22;27.90;57.00
38265;DHT22;24062;47.480;8.768;2023-08-12T01:21:55;27.80;57.00
38265;DHT22;24062;47.480;8.768;2023-08-12T01:24:33;27.80;57.00
38265;DHT22;24062;47.480;8.768;2023-08-12T01:27:01;27.80;57.00
38265;DHT22;24062;47.480;8.768;2023-08-12T01:29:28;27.80;57.00
38265;DHT22;24062;47.480;8.768;2023-08-12T01:31:59;27.80;57.10
38265;DHT22;24062;47.480;8.768;2023-08-12T01:34:37;27.80;57.10
38265;DHT22;24062;47.480;8.768;2023-08-12T01:37:06;27.80;57.10
38265;DHT22;24062;47.480;8.768;2023-08-12T01:39:37;27.80;57.10
38265;DHT22;24062;47.480;8.768;2023-08-12T01:42:06;27.80;57.10
38265;DHT22;24062;47.480;8.768;2023-08-12T01:44:33;27.80;57.10
38265;DHT22;24062;47.480;8.768;2023-08-12T01:47:00;27.70;57.10
38265;DHT22;24062;47.480;8.768;2023-08-12T01:49:28;27.70;57.10
38265;DHT22;24062;47.480;8.768;2023-08-12T01:51:55;27.70;57.10
38265;DHT22;24062;47.480;8.768;2023-08-12T01:54:22;27.70;57.10
38265;DHT22;24062;47.480;8.768;2023-08-12T01:56:50;27.70;57.10
38265;DHT22;24062;47.480;8.768;2023-08-12T01:59:17;27.70;57.20
38265;DHT22;24062;47.480;8.768;2023-08-12T02:01:44;27.70;57.20
38265;DHT22;24062;47.480;8.768;2023-08-12T02:04:11;27.60;57.20
38265;DHT22;24062;47.480;8.768;2023-08-12T02:06:38;27.70;57.20
38265;DHT22;24062;47.480;8.768;2023-08-12T02:09:05;27.70;57.20
38265;DHT22;24062;47.480;8.768;2023-08-12T02:11:32;27.60;57.20
38265;DHT22;24062;47.480;8.768;2023-08-12T02:14:00;27.60;57.20
38265;DHT22;24062;47.480;8.768;2023-08-12T02:16:27;27.60;57.20
38265;DHT22;24062;47.480;8.768;2023-08-12T02:18:54;27.60;57.20
38265;DHT22;24062;47.480;8.768;2023-08-12T02:21:21;27.60;57.30
38265;DHT22;24062;47.480;8.768;2023-08-12T02:23:48;27.50;57.30
38265;DHT22;24062;47.480;8.768;2023-08-12T02:26:15;27.50;57.30
38265;DHT22;24062;47.480;8.768;2023-08-12T02:28:41;27.50;57.20
38265;DHT22;24062;47.480;8.768;2023-08-12T02:31:10;27.50;57.30
38265;DHT22;24062;47.480;8.768;2023-08-12T02:33:37;27.50;57.30
38265;DHT22;24062;47.480;8.768;2023-08-12T02:36:04;27.50;57.30
38265;DHT22;24062;47.480;8.768;2023-08-12T02:38:31;27.50;57.30
38265;DHT22;24062;47.480;8.768;2023-08-12T02:40:58;27.50;57.30
38265;DHT22;24062;47.480;8.768;2023-08-12T02:43:25;27.50;57.30
38265;DHT22;24062;47.480;8.768;2023-08-12T02:45:52;27.50;57.40
38265;DHT22;24062;47.480;8.768;2023-08-12T02:48:21;27.50;57.40
38265;DHT22;24062;47.480;8.768;2023-08-12T02:50:48;27.50;57.40
38265;DHT22;24062;47.480;8.768;2023-08-12T02:53:15;27.40;57.30
38265;DHT22;24062;47.480;8.768;2023-08-12T02:55:42;27.50;57.40
38265;DHT22;24062;47.480;8.768;2023-08-12T02:58:11;27.40;57.30
38265;DHT22;24062;47.480;8.768;2023-08-12T03:00:40;27.40;57.30
38265;DHT22;24062;47.480;8.768;2023-08-12T03:03:09;27.40;57.30
38265;DHT22;24062;47.480;8.768;2023-08-12T03:05:37;27.40;57.40
38265;DHT22;24062;47.480;8.768;2023-08-12T03:08:05;27.40;57.40
38265;DHT22;24062;47.480;8.768;2023-08-12T03:10:33;27.40;57.40
38265;DHT22;24062;47.480;8.768;2023-08-12T03:13:00;27.30;57.40
38265;DHT22;24062;47.480;8.768;2023-08-12T03:15:27;27.30;57.40
38265;DHT22;24062;47.480;8.768;2023-08-12T03:17:55;27.40;57.50
38265;DHT22;24062;47.480;8.768;2023-08-12T03:20:22;27.30;57.40
38265;DHT22;24062;47.480;8.768;2023-08-12T03:22:50;27.30;57.40
38265;DHT22;24062;47.480;8.768;2023-08-12T03:25:17;27.30;57.40
38265;DHT22;24062;47.480;8.768;2023-08-12T03:27:45;27.30;57.50
38265;DHT22;24062;47.480;8.768;2023-08-12T03:30:12;27.30;57.50
38265;DHT22;24062;47.480;8.768;2023-08-12T03:32:39;27.30;57.50
38265;DHT22;24062;47.480;8.768;2023-08-12T03:35:06;27.30;57.50
38265;DHT22;24062;47.480;8.768;2023-08-12T03:37:33;27.30;57.50
38265;DHT22;24062;47.480;8.768;2023-08-12T03:40:02;27.20;57.40
38265;DHT22;24062;47.480;8.768;2023-08-12T03:42:29;27.30;57.50
38265;DHT22;24062;47.480;8.768;2023-08-12T03:44:56;27.20;57.50
38265;DHT22;24062;47.480;8.768;2023-08-12T03:47:23;27.20;57.60
38265;DHT22;24062;47.480;8.768;2023-08-12T03:49:50;27.20;57.50
38265;DHT22;24062;47.480;8.768;2023-08-12T03:52:17;27.20;57.50
38265;DHT22;24062;47.480;8.768;2023-08-12T03:54:44;27.20;57.60
38265;DHT22;24062;47.480;8.768;2023-08-12T03:57:12;27.20;57.50
38265;DHT22;24062;47.480;8.768;2023-08-12T03:59:39;27.20;57.60
38265;DHT22;24062;47.480;8.768;2023-08-12T04:02:06;27.20;57.60
38265;DHT22;24062;47.480;8.768;2023-08-12T04:04:33;27.20;57.60
38265;DHT22;24062;47.480;8.768;2023-08-12T04:07:00;27.20;57.60
38265;DHT22;24062;47.480;8.768;2023-08-12T04:09:27;27.20;57.60
38265;DHT22;24062;47.480;8.768;2023-08-12T04:11:54;27.10;57.50
38265;DHT22;24062;47.480;8.768;2023-08-12T04:14:22;27.10;57.60
38265;DHT22;24062;47.480;8.768;2023-08-12T04:16:49;27.10;57.60
38265;DHT22;24062;47.480;8.768;2023-08-12T04:19:16;27.10;57.60
38265;DHT22;24062;47.480;8.768;2023-08-12T04:21:43;27.10;57.60
38265;DHT22;24062;47.480;8.768;2023-08-12T04:24:12;27.10;57.60
38265;DHT22;24062;47.480;8.768;2023-08-12T04:26:39;27.10;57.60
38265;DHT22;24062;47.480;8.768;2023-08-12T04:29:06;27.10;57.60
38265;DHT22;24062;47.480;8.768;2023-08-12T04:31:34;27.10;57.60
38265;DHT22;24062;47.480;8.768;2023-08-12T04:34:02;27.00;57.50
38265;DHT22;24062;47.480;8.768;2023-08-12T04:36:29;27.10;57.60
38265;DHT22;24062;47.480;8.768;2023-08-12T04:38:56;27.10;57.70
38265;DHT22;24062;47.480;8.768;2023-08-12T04:41:23;27.10;57.70
38265;DHT22;24062;47.480;8.768;2023-08-12T04:43:50;27.00;57.60
38265;DHT22;24062;47.480;8.768;2023-08-12T04:46:17;27.00;57.60
38265;DHT22;24062;47.480;8.768;2023-08-12T04:48:46;27.00;57.60
38265;DHT22;24062;47.480;8.768;2023-08-12T04:51:12;27.00;57.60
38265;DHT22;24062;47.480;8.768;2023-08-12T04:53:40;27.00;57.60
38265;DHT22;24062;47.480;8.768;2023-08-12T04:56:07;27.00;58.20
38265;DHT22;24062;47.480;8.768;2023-08-12T04:58:34;27.00;57.60
38265;DHT22;24062;47.480;8.768;2023-08-12T05:01:01;27.00;57.70
38265;DHT22;24062;47.480;8.768;2023-08-12T05:03:28;26.90;57.60
38265;DHT22;24062;47.480;8.768;2023-08-12T05:05:56;27.00;57.60
38265;DHT22;24062;47.480;8.768;2023-08-12T05:08:23;27.00;57.70
38265;DHT22;24062;47.480;8.768;2023-08-12T05:10:50;27.00;57.70
38265;DHT22;24062;47.480;8.768;2023-08-12T05:13:17;27.00;57.70
38265;DHT22;24062;47.480;8.768;2023-08-12T05:15:45;27.00;57.70
38265;DHT22;24062;47.480;8.768;2023-08-12T05:18:13;27.00;57.70
38265;DHT22;24062;47.480;8.768;2023-08-12T05:20:40;27.00;57.70
38265;DHT22;24062;47.480;8.768;2023-08-12T05:23:09;27.00;57.70
38265;DHT22;24062;47.480;8.768;2023-08-12T05:25:36;27.00;57.60
38265;DHT22;24062;47.480;8.768;2023-08-12T05:28:03;27.00;57.60
38265;DHT22;24062;47.480;8.768;2023-08-12T05:30:30;27.00;57.60
38265;DHT22;24062;47.480;8.768;2023-08-12T05:32:57;27.00;57.90
38265;DHT22;24062;47.480;8.768;2023-08-12T05:35:25;27.00;57.60
38265;DHT22;24062;47.480;8.768;2023-08-12T05:37:51;27.00;57.60
38265;DHT22;24062;47.480;8.768;2023-08-12T05:40:20;27.00;57.50
38265;DHT22;24062;47.480;8.768;2023-08-12T05:42:47;27.00;57.50
38265;DHT22;24062;47.480;8.768;2023-08-12T05:45:14;27.10;57.50
38265;DHT22;24062;47.480;8.768;2023-08-12T05:47:41;27.10;57.60
38265;DHT22;24062;47.480;8.768;2023-08-12T05:50:08;27.00;57.60
38265;DHT22;24062;47.480;8.768;2023-08-12T05:52:35;27.00;57.50
38265;DHT22;24062;47.480;8.768;2023-08-12T05:55:03;27.00;57.50
38265;DHT22;24062;47.480;8.768;2023-08-12T05:57:31;27.10;57.50
38265;DHT22;24062;47.480;8.768;2023-08-12T05:59:58;27.10;57.50
38265;DHT22;24062;47.480;8.768;2023-08-12T06:02:25;27.10;57.50
38265;DHT22;24062;47.480;8.768;2023-08-12T06:04:53;27.10;57.50
38265;DHT22;24062;47.480;8.768;2023-08-12T06:07:20;27.10;57.40
38265;DHT22;24062;47.480;8.768;2023-08-12T06:09:48;27.20;57.40
38265;DHT22;24062;47.480;8.768;2023-08-12T06:12:15;27.10;57.40
38265;DHT22;24062;47.480;8.768;2023-08-12T06:14:44;27.20;57.40
38265;DHT22;24062;47.480;8.768;2023-08-12T06:17:11;27.20;57.30
38265;DHT22;24062;47.480;8.768;2023-08-12T06:19:38;27.30;57.30
38265;DHT22;24062;47.480;8.768;2023-08-12T06:22:05;27.40;57.10
38265;DHT22;24062;47.480;8.768;2023-08-12T06:24:31;27.50;56.90
38265;DHT22;24062;47.480;8.768;2023-08-12T06:26:58;27.60;56.70
38265;DHT22;24062;47.480;8.768;2023-08-12T06:29:25;27.50;56.70
38265;DHT22;24062;47.480;8.768;2023-08-12T06:31:54;27.50;56.80
38265;DHT22;24062;47.480;8.768;2023-08-12T06:34:21;27.50;56.70
38265;DHT22;24062;47.480;8.768;2023-08-12T06:36:48;27.60;56.70
38265;DHT22;24062;47.480;8.768;2023-08-12T06:39:15;27.70;56.80
38265;DHT22;24062;47.480;8.768;2023-08-12T06:41:42;27.90;56.80
38265;DHT22;24062;47.480;8.768;2023-08-12T06:44:08;28.00;56.70
38265;DHT22;24062;47.480;8.768;2023-08-12T06:46:35;28.10;56.60
38265;DHT22;24062;47.480;8.768;2023-08-12T06:49:04;28.20;56.50
38265;DHT22;24062;47.480;8.768;2023-08-12T06:51:31;28.20;56.30
38265;DHT22;24062;47.480;8.768;2023-08-12T06:53:58;28.30;56.20
38265;DHT22;24062;47.480;8.768;2023-08-12T06:56:25;28.40;56.10
38265;DHT22;24062;47.480;8.768;2023-08-12T06:58:52;28.50;56.00
38265;DHT22;24062;47.480;8.768;2023-08-12T07:01:18;28.50;55.80
38265;DHT22;24062;47.480;8.768;2023-08-12T07:03:45;28.60;55.80
38265;DHT22;24062;47.480;8.768;2023-08-12T07:06:14;28.60;55.60
38265;DHT22;24062;47.480;8.768;2023-08-12T07:08:41;28.60;55.50
38265;DHT22;24062;47.480;8.768;2023-08-12T07:11:08;28.70;55.50
38265;DHT22;24062;47.480;8.768;2023-08-12T07:13:35;28.70;55.40
38265;DHT22;24062;47.480;8.768;2023-08-12T07:16:02;28.80;55.30
38265;DHT22;24062;47.480;8.768;2023-08-12T07:18:29;28.90;55.20
38265;DHT22;24062;47.480;8.768;2023-08-12T07:20:56;28.90;55.10
38265;DHT22;24062;47.480;8.768;2023-08-12T07:23:25;28.90;55.20
38265;DHT22;24062;47.480;8.768;2023-08-12T07:25:52;28.80;55.20
38265;DHT22;24062;47.480;8.768;2023-08-12T07:28:19;28.80;55.30
38265;DHT22;24062;47.480;8.768;2023-08-12T07:30:46;28.70;55.30
38265;DHT22;24062;47.480;8.768;2023-08-12T07:33:14;28.70;55.30
38265;DHT22;24062;47.480;8.768;2023-08-12T07:35:41;28.80;55.40
38265;DHT22;24062;47.480;8.768;2023-08-12T07:38:08;28.70;55.30
38265;DHT22;24062;47.480;8.768;2023-08-12T07:40:36;28.80;55.50
38265;DHT22;24062;47.480;8.768;2023-08-12T07:43:03;28.70;55.40
38265;DHT22;24062;47.480;8.768;2023-08-12T07:45:31;28.70;55.50
38265;DHT22;24062;47.480;8.768;2023-08-12T07:47:58;28.70;55.50
38265;DHT22;24062;47.480;8.768;2023-08-12T07:50:25;28.70;55.50
38265;DHT22;24062;47.480;8.768;2023-08-12T07:52:52;28.60;55.50
38265;DHT22;24062;47.480;8.768;2023-08-12T07:55:19;28.70;55.50
38265;DHT22;24062;47.480;8.768;2023-08-12T07:57:47;28.80;55.50
38265;DHT22;24062;47.480;8.768;2023-08-12T08:00:15;28.80;55.50
38265;DHT22;24062;47.480;8.768;2023-08-12T08:02:42;28.80;55.50
38265;DHT22;24062;47.480;8.768;2023-08-12T08:05:09;28.80;55.50
38265;DHT22;24062;47.480;8.768;2023-08-12T08:07:36;28.80;55.50
38265;DHT22;24062;47.480;8.768;2023-08-12T08:10:03;28.80;55.50
38265;DHT22;24062;47.480;8.768;2023-08-12T08:12:30;28.80;55.50
38265;DHT22;24062;47.480;8.768;2023-08-12T08:14:59;28.90;55.50
38265;DHT22;24062;47.480;8.768;2023-08-12T08:17:26;28.80;55.40
38265;DHT22;24062;47.480;8.768;2023-08-12T08:19:53;28.90;55.50
38265;DHT22;24062;47.480;8.768;2023-08-12T08:22:20;28.90;55.50
38265;DHT22;24062;47.480;8.768;2023-08-12T08:24:46;28.90;55.50
38265;DHT22;24062;47.480;8.768;2023-08-12T08:27:13;28.90;55.40
38265;DHT22;24062;47.480;8.768;2023-08-12T08:29:40;28.90;55.40
38265;DHT22;24062;47.480;8.768;2023-08-12T08:32:09;29.00;55.40
38265;DHT22;24062;47.480;8.768;2023-08-12T08:34:36;29.10;55.30
38265;DHT22;24062;47.480;8.768;2023-08-12T08:37:03;29.20;55.30
38265;DHT22;24062;47.480;8.768;2023-08-12T08:39:30;29.20;55.20
38265;DHT22;24062;47.480;8.768;2023-08-12T08:41:58;29.20;55.20
38265;DHT22;24062;47.480;8.768;2023-08-12T08:44:29;29.30;55.20
38265;DHT22;24062;47.480;8.768;2023-08-12T08:46:58;29.30;55.30
38265;DHT22;24062;47.480;8.768;2023-08-12T08:49:28;29.30;55.20
38265;DHT22;24062;47.480;8.768;2023-08-12T08:51:58;29.30;55.30
38265;DHT22;24062;47.480;8.768;2023-08-12T08:54:27;29.30;55.30
38265;DHT22;24062;47.480;8.768;2023-08-12T08:56:54;29.30;55.30
38265;DHT22;24062;47.480;8.768;2023-08-12T08:59:21;29.30;55.40
38265;DHT22;24062;47.480;8.768;2023-08-12T09:01:49;29.30;55.40
38265;DHT22;24062;47.480;8.768;2023-08-12T09:04:18;29.20;55.40
38265;DHT22;24062;47.480;8.768;2023-08-12T09:06:49;29.20;55.50
38265;DHT22;24062;47.480;8.768;2023-08-12T09:09:20;29.20;55.50
38265;DHT22;24062;47.480;8.768;2023-08-12T09:11:49;29.20;55.50
38265;DHT22;24062;47.480;8.768;2023-08-12T09:14:18;29.30;55.50
38265;DHT22;24062;47.480;8.768;2023-08-12T09:16:45;29.30;55.40
38265;DHT22;24062;47.480;8.768;2023-08-12T09:19:12;29.40;55.40
38265;DHT22;24062;47.480;8.768;2023-08-12T09:21:39;29.50;55.40
38265;DHT22;24062;47.480;8.768;2023-08-12T09:24:08;29.50;55.30
38265;DHT22;24062;47.480;8.768;2023-08-12T09:26:35;29.50;55.30
38265;DHT22;24062;47.480;8.768;2023-08-12T09:29:03;29.60;55.30
38265;DHT22;24062;47.480;8.768;2023-08-12T09:31:30;29.60;55.30
38265;DHT22;24062;47.480;8.768;2023-08-12T09:33:58;29.60;55.30
38265;DHT22;24062;47.480;8.768;2023-08-12T09:36:28;29.50;55.30
38265;DHT22;24062;47.480;8.768;2023-08-12T09:38:56;29.60;55.30
38265;DHT22;24062;47.480;8.768;2023-08-12T09:41:26;29.50;55.10
38265;DHT22;24062;47.480;8.768;2023-08-12T09:43:53;29.60;55.20
38265;DHT22;24062;47.480;8.768;2023-08-12T09:46:21;29.50;55.10
38265;DHT22;24062;47.480;8.768;2023-08-12T09:48:50;29.60;55.20
38265;DHT22;24062;47.480;8.768;2023-08-12T09:51:18;29.50;55.20
38265;DHT22;24062;47.480;8.768;2023-08-12T09:53:45;29.50;55.20
38265;DHT22;24062;47.480;8.768;2023-08-12T09:56:17;29.50;55.30
38265;DHT22;24062;47.480;8.768;2023-08-12T09:58:47;29.40;55.20
38265;DHT22;24062;47.480;8.768;2023-08-12T10:01:16;29.40;55.30
38265;DHT22;24062;47.480;8.768;2023-08-12T10:03:47;29.40;55.30
38265;DHT22;24062;47.480;8.768;2023-08-12T10:06:15;29.30;55.30
38265;DHT22;24062;47.480;8.768;2023-08-12T10:08:43;29.30;55.30
38265;DHT22;24062;47.480;8.768;2023-08-12T10:11:13;29.30;55.40
38265;DHT22;24062;47.480;8.768;2023-08-12T10:13:41;29.30;55.40
38265;DHT22;24062;47.480;8.768;2023-08-12T10:16:10;29.30;55.40
38265;DHT22;24062;47.480;8.768;2023-08-12T10:18:38;29.30;55.40
38265;DHT22;24062;47.480;8.768;2023-08-12T10:21:08;29.30;55.30
38265;DHT22;24062;47.480;8.768;2023-08-12T10:23:36;29.40;55.40
38265;DHT22;24062;47.480;8.768;2023-08-12T10:26:05;29.40;55.30
38265;DHT22;24062;47.480;8.768;2023-08-12T10:28:33;29.50;55.40
38265;DHT22;24062;47.480;8.768;2023-08-12T10:31:03;29.50;55.30
38265;DHT22;24062;47.480;8.768;2023-08-12T10:33:35;29.50;55.30
38265;DHT22;24062;47.480;8.768;2023-08-12T10:36:03;29.50;55.30
38265;DHT22;24062;47.480;8.768;2023-08-12T10:38:32;29.50;55.20
38265;DHT22;24062;47.480;8.768;2023-08-12T10:41:15;29.50;55.20
38265;DHT22;24062;47.480;8.768;2023-08-12T10:43:51;29.50;55.20
38265;DHT22;24062;47.480;8.768;2023-08-12T10:46:29;29.50;55.20
38265;DHT22;24062;47.480;8.768;2023-08-12T10:49:07;29.50;55.80
38265;DHT22;24062;47.480;8.768;2023-08-12T10:51:45;29.50;55.10
38265;DHT22;24062;47.480;8.768;2023-08-12T10:54:14;29.40;55.10
38265;DHT22;24062;47.480;8.768;2023-08-12T10:57:04;29.40;55.20
38265;DHT22;24062;47.480;8.768;2023-08-12T10:59:53;29.50;55.20
38265;DHT22;24062;47.480;8.768;2023-08-12T11:02:24;29.50;55.20
38265;DHT22;24062;47.480;8.768;2023-08-12T11:04:55;29.50;55.30
38265;DHT22;24062;47.480;8.768;2023-08-12T11:07:29;29.50;55.20
38265;DHT22;24062;47.480;8.768;2023-08-12T11:10:00;29.50;55.30
38265;DHT22;24062;47.480;8.768;2023-08-12T11:12:31;29.50;55.30
38265;DHT22;24062;47.480;8.768;2023-08-12T11:15:00;29.40;55.30
38265;DHT22;24062;47.480;8.768;2023-08-12T11:17:33;29.40;55.30
38265;DHT22;24062;47.480;8.768;2023-08-12T11:20:03;29.40;55.40
38265;DHT22;24062;47.480;8.768;2023-08-12T11:22:31;29.40;55.40
38265;DHT22;24062;47.480;8.768;2023-08-12T11:25:00;29.30;55.30
38265;DHT22;24062;47.480;8.768;2023-08-12T11:27:27;29.30;55.40
38265;DHT22;24062;47.480;8.768;2023-08-12T11:29:54;29.30;55.40
38265;DHT22;24062;47.480;8.768;2023-08-12T11:32:21;29.30;55.50
38265;DHT22;24062;47.480;8.768;2023-08-12T11:34:48;29.20;55.50
38265;DHT22;24062;47.480;8.768;2023-08-12T11:37:17;29.20;55.50
38265;DHT22;24062;47.480;8.768;2023-08-12T11:39:43;29.20;55.50
38265;DHT22;24062;47.480;8.768;2023-08-12T11:42:10;29.20;56.20
38265;DHT22;24062;47.480;8.768;2023-08-12T11:44:40;29.20;55.60
38265;DHT22;24062;47.480;8.768;2023-08-12T11:47:07;29.20;55.60
38265;DHT22;24062;47.480;8.768;2023-08-12T11:49:34;29.20;55.60
38265;DHT22;24062;47.480;8.768;2023-08-12T11:52:01;29.20;55.60
38265;DHT22;24062;47.480;8.768;2023-08-12T11:54:30;29.20;55.60
38265;DHT22;24062;47.480;8.768;2023-08-12T11:56:58;29.20;55.50
38265;DHT22;24062;47.480;8.768;2023-08-12T11:59:25;29.30;55.60
38265;DHT22;24062;47.480;8.768;2023-08-12T12:01:54;29.30;55.40
38265;DHT22;24062;47.480;8.768;2023-08-12T12:04:21;29.40;55.50
38265;DHT22;24062;47.480;8.768;2023-08-12T12:06:48;29.40;55.40
38265;DHT22;24062;47.480;8.768;2023-08-12T12:09:16;29.40;55.30
38265;DHT22;24062;47.480;8.768;2023-08-12T12:11:45;29.50;55.30
38265;DHT22;24062;47.480;8.768;2023-08-12T12:14:12;29.50;55.20
38265;DHT22;24062;47.480;8.768;2023-08-12T12:16:40;29.40;55.10
38265;DHT22;24062;47.480;8.768;2023-08-12T12:19:15;29.60;55.20
38265;DHT22;24062;47.480;8.768;2023-08-12T12:21:43;29.70;55.20
38265;DHT22;24062;47.480;8.768;2023-08-12T12:24:11;29.70;55.10
38265;DHT22;24062;47.480;8.768;2023-08-12T12:26:38;29.80;55.10
38265;DHT22;24062;47.480;8.768;2023-08-12T12:29:07;29.80;55.00
38265;DHT22;24062;47.480;8.768;2023-08-12T12:31:37;29.80;55.00
38265;DHT22;24062;47.480;8.768;2023-08-12T12:34:05;29.80;55.60
38265;DHT22;24062;47.480;8.768;2023-08-12T12:36:34;29.80;55.00
38265;DHT22;24062;47.480;8.768;2023-08-12T12:39:02;29.80;54.90
38265;DHT22;24062;47.480;8.768;2023-08-12T12:41:29;29.80;54.90
38265;DHT22;24062;47.480;8.768;2023-08-12T12:43:56;29.90;55.00
38265;DHT22;24062;47.480;8.768;2023-08-12T12:46:24;29.90;55.00
38265;DHT22;24062;47.480;8.768;2023-08-12T12:48:51;29.90;55.00
38265;DHT22;24062;47.480;8.768;2023-08-12T12:51:18;29.90;55.00
38265;DHT22;24062;47.480;8.768;2023-08-12T12:53:45;30.00;55.00
38265;DHT22;24062;47.480;8.768;2023-08-12T12:56:12;30.00;55.00
38265;DHT22;24062;47.480;8.768;2023-08-12T12:58:39;30.00;55.00
38265;DHT22;24062;47.480;8.768;2023-08-12T13:01:06;30.00;55.00
38265;DHT22;24062;47.480;8.768;2023-08-12T13:03:34;30.10;55.10
38265;DHT22;24062;47.480;8.768;2023-08-12T13:06:02;30.00;55.00
38265;DHT22;24062;47.480;8.768;2023-08-12T13:08:29;30.10;55.00
38265;DHT22;24062;47.480;8.768;2023-08-12T13:10:57;30.10;55.00
38265;DHT22;24062;47.480;8.768;2023-08-12T13:13:24;30.10;55.00
38265;DHT22;24062;47.480;8.768;2023-08-12T13:15:51;30.10;55.00
38265;DHT22;24062;47.480;8.768;2023-08-12T13:18:18;30.10;55.00
38265;DHT22;24062;47.480;8.768;2023-08-12T13:20:47;30.20;55.00
38265;DHT22;24062;47.480;8.768;2023-08-12T13:23:14;30.20;55.00
38265;DHT22;24062;47.480;8.768;2023-08-12T13:25:42;30.20;55.00
38265;DHT22;24062;47.480;8.768;2023-08-12T13:28:09;30.20;55.00
38265;DHT22;24062;47.480;8.768;2023-08-12T13:30:36;30.30;55.10
38265;DHT22;24062;47.480;8.768;2023-08-12T13:33:03;30.30;55.00
38265;DHT22;24062;47.480;8.768;2023-08-12T13:35:31;30.30;55.00
38265;DHT22;24062;47.480;8.768;2023-08-12T13:37:59;30.30;55.00
38265;DHT22;24062;47.480;8.768;2023-08-12T13:40:26;30.30;55.00
38265;DHT22;24062;47.480;8.768;2023-08-12T13:42:53;30.40;55.00
38265;DHT22;24062;47.480;8.768;2023-08-12T13:45:20;30.40;55.00
38265;DHT22;24062;47.480;8.768;2023-08-12T13:47:47;30.40;54.90
38265;DHT22;24062;47.480;8.768;2023-08-12T13:50:14;30.40;54.90
38265;DHT22;24062;47.480;8.768;2023-08-12T13:52:41;30.40;54.90
38265;DHT22;24062;47.480;8.768;2023-08-12T13:55:09;30.50;54.90
38265;DHT22;24062;47.480;8.768;2023-08-12T13:57:36;30.50;54.80
38265;DHT22;24062;47.480;8.768;2023-08-12T14:00:04;30.50;54.80
38265;DHT22;24062;47.480;8.768;2023-08-12T14:02:35;30.60;54.80
38265;DHT22;24062;47.480;8.768;2023-08-12T14:05:02;30.60;54.70
38265;DHT22;24062;47.480;8.768;2023-08-12T14:07:30;30.60;54.60
38265;DHT22;24062;47.480;8.768;2023-08-12T14:09:57;30.70;54.70
38265;DHT22;24062;47.480;8.768;2023-08-12T14:12:25;30.70;54.60
38265;DHT22;24062;47.480;8.768;2023-08-12T14:14:52;30.70;54.60
38265;DHT22;24062;47.480;8.768;2023-08-12T14:17:19;30.80;54.60
38265;DHT22;24062;47.480;8.768;2023-08-12T14:19:49;30.80;54.50
38265;DHT22;24062;47.480;8.768;2023-08-12T14:22:16;30.90;54.50
38265;DHT22;24062;47.480;8.768;2023-08-12T14:24:43;30.90;54.50
38265;DHT22;24062;47.480;8.768;2023-08-12T14:27:11;31.00;54.50
38265;DHT22;24062;47.480;8.768;2023-08-12T14:29:39;31.00;54.40
38265;DHT22;24062;47.480;8.768;2023-08-12T14:32:06;31.00;54.40
38265;DHT22;24062;47.480;8.768;2023-08-12T14:34:33;31.10;54.40
38265;DHT22;24062;47.480;8.768;2023-08-12T14:37:01;31.10;54.30
38265;DHT22;24062;47.480;8.768;2023-08-12T14:39:28;31.10;54.20
38265;DHT22;24062;47.480;8.768;2023-08-12T14:41:55;31.00;54.20
38265;DHT22;24062;47.480;8.768;2023-08-12T14:44:22;31.00;54.20
38265;DHT22;24062;47.480;8.768;2023-08-12T14:46:51;31.00;54.30
38265;DHT22;24062;47.480;8.768;2023-08-12T14:49:18;30.90;54.30
38265;DHT22;24062;47.480;8.768;2023-08-12T14:51:45;31.00;54.50
38265;DHT22;24062;47.480;8.768;2023-08-12T14:54:11;31.00;54.50
38265;DHT22;24062;47.480;8.768;2023-08-12T14:56:38;31.00;54.50
38265;DHT22;24062;47.480;8.768;2023-08-12T14:59:05;31.00;54.40
38265;DHT22;24062;47.480;8.768;2023-08-12T15:01:32;31.00;54.40
38265;DHT22;24062;47.480;8.768;2023-08-12T15:04:00;30.90;54.50
38265;DHT22;24062;47.480;8.768;2023-08-12T15:06:27;30.90;54.50
38265;DHT22;24062;47.480;8.768;2023-08-12T15:08:54;30.90;54.60
38265;DHT22;24062;47.480;8.768;2023-08-12T15:11:21;30.90;54.60
38265;DHT22;24062;47.480;8.768;2023-08-12T15:13:49;30.90;54.70
38265;DHT22;24062;47.480;8.768;2023-08-12T15:16:16;30.80;54.70
38265;DHT22;24062;47.480;8.768;2023-08-12T15:18:43;30.80;54.80
38265;DHT22;24062;47.480;8.768;2023-08-12T15:21:11;30.80;54.80
38265;DHT22;24062;47.480;8.768;2023-08-12T15:23:38;30.80;54.80
38265;DHT22;24062;47.480;8.768;2023-08-12T15:26:05;30.80;54.90
38265;DHT22;24062;47.480;8.768;2023-08-12T15:28:32;30.80;54.90
38265;DHT22;24062;47.480;8.768;2023-08-12T15:30:59;30.90;55.00
38265;DHT22;24062;47.480;8.768;2023-08-12T15:33:26;30.90;54.90